sensor_id;sensor_type;location;lat;lon;timestamp;P1;durP1;ratioP1;P2;durP2;ratioP2
34836;SDS011;21053;50.848;4.652;2023-10-31T00:03:42;310.80;;;282.30;;
34836;SDS011;21053;50.848;4.652;2023-10-31T00:06:08;342.67;;;311.45;;
34836;SDS011;21053;50.848;4.652;2023-10-31T00:09:05;317.88;;;288.38;;
34836;SDS011;21053;50.848;4.652;2023-10-31T00:11:42;291.85;;;264.23;;
34836;SDS011;21053;50.848;4.652;2023-10-31T00:14:09;338.25;;;307.35;;
34836;SDS011;21053;50.848;4.652;2023-10-31T00:16:35;350.27;;;318.35;;
34836;SDS011;21053;50.848;4.652;2023-10-31T00:19:15;347.23;;;315.50;;
34836;SDS011;21053;50.848;4.652;2023-10-31T00:21:57;346.85;;;315.25;;
34836;SDS011;21053;50.848;4.652;2023-10-31T00:25:14;307.58;;;279.02;;
34836;SDS011;21053;50.848;4.652;2023-10-31T00:31:00;302.08;;;274.00;;
34836;SDS011;21053;50.848;4.652;2023-10-31T00:33:42;301.27;;;273.33;;
34836;SDS011;21053;50.848;4.652;2023-10-31T00:36:34;271.63;;;246.50;;
34836;SDS011;21053;50.848;4.652;2023-10-31T00:43:01;238.15;;;215.52;;
34836;SDS011;21053;50.848;4.652;2023-10-31T00:46:02;265.23;;;240.75;;
34836;SDS011;21053;50.848;4.652;2023-10-31T00:54:51;230.18;;;209.40;;
34836;SDS011;21053;50.848;4.652;2023-10-31T00:57:29;267.80;;;243.95;;
34836;SDS011;21053;50.848;4.652;2023-10-31T01:00:05;244.10;;;222.38;;
34836;SDS011;21053;50.848;4.652;2023-10-31T01:03:01;233.13;;;212.63;;
34836;SDS011;21053;50.848;4.652;2023-10-31T01:05:36;252.43;;;231.05;;
34836;SDS011;21053;50.848;4.652;2023-10-31T01:08:11;237.75;;;217.35;;
34836;SDS011;21053;50.848;4.652;2023-10-31T01:11:09;239.05;;;218.48;;
34836;SDS011;21053;50.848;4.652;2023-10-31T01:14:07;225.27;;;205.68;;
34836;SDS011;21053;50.848;4.652;2023-10-31T01:20:44;212.43;;;193.25;;
34836;SDS011;21053;50.848;4.652;2023-10-31T01:23:26;222.65;;;203.52;;
34836;SDS011;21053;50.848;4.652;2023-10-31T01:32:19;173.85;;;158.65;;
34836;SDS011;21053;50.848;4.652;2023-10-31T01:35:20;218.68;;;199.77;;
34836;SDS011;21053;50.848;4.652;2023-10-31T01:41:41;182.35;;;166.65;;
34836;SDS011;21053;50.848;4.652;2023-10-31T01:50:40;159.40;;;146.02;;
34836;SDS011;21053;50.848;4.652;2023-10-31T02:03:00;208.25;;;189.98;;
34836;SDS011;21053;50.848;4.652;2023-10-31T02:05:58;215.25;;;196.25;;
34836;SDS011;21053;50.848;4.652;2023-10-31T02:21:38;187.85;;;170.45;;
34836;SDS011;21053;50.848;4.652;2023-10-31T02:24:37;155.35;;;141.05;;
34836;SDS011;21053;50.848;4.652;2023-10-31T02:34:07;50.17;;;45.55;;
34836;SDS011;21053;50.848;4.652;2023-10-31T02:43:25;105.07;;;96.05;;
34836;SDS011;21053;50.848;4.652;2023-10-31T02:59:49;118.43;;;108.47;;
34836;SDS011;21053;50.848;4.652;2023-10-31T03:02:51;81.32;;;74.53;;
34836;SDS011;21053;50.848;4.652;2023-10-31T03:15:43;94.45;;;86.68;;
34836;SDS011;21053;50.848;4.652;2023-10-31T03:18:30;87.60;;;80.47;;
34836;SDS011;21053;50.848;4.652;2023-10-31T03:24:04;111.88;;;102.93;;
34836;SDS011;21053;50.848;4.652;2023-10-31T03:26:41;123.10;;;113.20;;
34836;SDS011;21053;50.848;4.652;2023-10-31T03:29:49;99.45;;;91.28;;
34836;SDS011;21053;50.848;4.652;2023-10-31T03:32:29;176.95;;;162.70;;
34836;SDS011;21053;50.848;4.652;2023-10-31T03:35:44;106.65;;;98.00;;
34836;SDS011;21053;50.848;4.652;2023-10-31T03:46:51;167.70;;;154.30;;
34836;SDS011;21053;50.848;4.652;2023-10-31T03:56:54;99.55;;;91.05;;
34836;SDS011;21053;50.848;4.652;2023-10-31T03:59:57;105.35;;;96.40;;
34836;SDS011;21053;50.848;4.652;2023-10-31T04:02:34;110.47;;;100.75;;
34836;SDS011;21053;50.848;4.652;2023-10-31T04:05:22;137.63;;;125.68;;
34836;SDS011;21053;50.848;4.652;2023-10-31T04:08:31;112.35;;;102.50;;
34836;SDS011;21053;50.848;4.652;2023-10-31T04:14:35;116.32;;;106.22;;
34836;SDS011;21053;50.848;4.652;2023-10-31T04:17:13;109.80;;;100.38;;
34836;SDS011;21053;50.848;4.652;2023-10-31T04:20:06;111.70;;;102.20;;
34836;SDS011;21053;50.848;4.652;2023-10-31T04:23:12;101.35;;;92.43;;
34836;SDS011;21053;50.848;4.652;2023-10-31T04:31:57;116.13;;;106.10;;
34836;SDS011;21053;50.848;4.652;2023-10-31T04:34:59;89.00;;;81.40;;
34836;SDS011;21053;50.848;4.652;2023-10-31T04:38:10;103.40;;;94.68;;
34836;SDS011;21053;50.848;4.652;2023-10-31T04:43:56;104.78;;;96.05;;
34836;SDS011;21053;50.848;4.652;2023-10-31T04:49:19;107.38;;;98.32;;
34836;SDS011;21053;50.848;4.652;2023-10-31T04:58:20;71.22;;;65.30;;
34836;SDS011;21053;50.848;4.652;2023-10-31T05:01:35;59.20;;;54.13;;
34836;SDS011;21053;50.848;4.652;2023-10-31T05:04:28;90.65;;;83.15;;
34836;SDS011;21053;50.848;4.652;2023-10-31T05:09:33;95.65;;;87.78;;
34836;SDS011;21053;50.848;4.652;2023-10-31T05:12:01;109.35;;;99.93;;
34836;SDS011;21053;50.848;4.652;2023-10-31T05:20:39;79.38;;;72.72;;
34836;SDS011;21053;50.848;4.652;2023-10-31T05:28:41;105.05;;;96.13;;
34836;SDS011;21053;50.848;4.652;2023-10-31T05:31:47;96.45;;;88.03;;
34836;SDS011;21053;50.848;4.652;2023-10-31T05:37:57;74.30;;;67.95;;
34836;SDS011;21053;50.848;4.652;2023-10-31T05:43:53;112.25;;;102.72;;
34836;SDS011;21053;50.848;4.652;2023-10-31T05:50:04;95.28;;;87.47;;
34836;SDS011;21053;50.848;4.652;2023-10-31T05:53:03;125.10;;;115.03;;
34836;SDS011;21053;50.848;4.652;2023-10-31T05:59:24;121.93;;;111.65;;
34836;SDS011;21053;50.848;4.652;2023-10-31T06:01:58;129.38;;;118.93;;
34836;SDS011;21053;50.848;4.652;2023-10-31T06:04:55;151.10;;;138.85;;
34836;SDS011;21053;50.848;4.652;2023-10-31T06:13:40;129.75;;;119.07;;
34836;SDS011;21053;50.848;4.652;2023-10-31T06:17:04;140.88;;;129.43;;
34836;SDS011;21053;50.848;4.652;2023-10-31T06:23:09;120.78;;;110.40;;
34836;SDS011;21053;50.848;4.652;2023-10-31T06:29:46;141.80;;;126.95;;
34836;SDS011;21053;50.848;4.652;2023-10-31T06:32:13;167.98;;;154.32;;
34836;SDS011;21053;50.848;4.652;2023-10-31T06:34:51;169.38;;;154.88;;
34836;SDS011;21053;50.848;4.652;2023-10-31T06:37:17;225.98;;;206.48;;
34836;SDS011;21053;50.848;4.652;2023-10-31T06:39:46;244.38;;;222.32;;
34836;SDS011;21053;50.848;4.652;2023-10-31T06:42:15;286.27;;;260.10;;
34836;SDS011;21053;50.848;4.652;2023-10-31T06:44:42;286.77;;;260.60;;
34836;SDS011;21053;50.848;4.652;2023-10-31T06:47:11;294.25;;;267.25;;
34836;SDS011;21053;50.848;4.652;2023-10-31T06:49:38;297.73;;;270.42;;
34836;SDS011;21053;50.848;4.652;2023-10-31T06:52:04;306.45;;;278.20;;
34836;SDS011;21053;50.848;4.652;2023-10-31T06:54:36;273.63;;;248.80;;
34836;SDS011;21053;50.848;4.652;2023-10-31T06:57:06;275.73;;;250.30;;
34836;SDS011;21053;50.848;4.652;2023-10-31T06:59:43;266.25;;;241.38;;
34836;SDS011;21053;50.848;4.652;2023-10-31T07:02:08;268.92;;;243.68;;
34836;SDS011;21053;50.848;4.652;2023-10-31T07:04:34;301.05;;;273.85;;
34836;SDS011;21053;50.848;4.652;2023-10-31T07:09:33;287.48;;;261.15;;
34836;SDS011;21053;50.848;4.652;2023-10-31T07:11:59;246.20;;;223.52;;
34836;SDS011;21053;50.848;4.652;2023-10-31T07:19:27;220.77;;;200.52;;
34836;SDS011;21053;50.848;4.652;2023-10-31T07:24:25;279.60;;;254.93;;
34836;SDS011;21053;50.848;4.652;2023-10-31T07:27:00;263.67;;;240.20;;
34836;SDS011;21053;50.848;4.652;2023-10-31T07:32:00;237.07;;;215.82;;
34836;SDS011;21053;50.848;4.652;2023-10-31T07:34:29;312.00;;;283.50;;
34836;SDS011;21053;50.848;4.652;2023-10-31T07:36:58;287.48;;;261.55;;
34836;SDS011;21053;50.848;4.652;2023-10-31T07:39:29;296.10;;;269.48;;
34836;SDS011;21053;50.848;4.652;2023-10-31T07:55:38;236.98;;;214.85;;
34836;SDS011;21053;50.848;4.652;2023-10-31T07:58:08;323.65;;;292.55;;
34836;SDS011;21053;50.848;4.652;2023-10-31T08:00:37;393.83;;;356.35;;
34836;SDS011;21053;50.848;4.652;2023-10-31T08:03:05;353.42;;;321.02;;
34836;SDS011;21053;50.848;4.652;2023-10-31T08:05:33;348.73;;;316.75;;
34836;SDS011;21053;50.848;4.652;2023-10-31T08:08:02;343.42;;;312.13;;
34836;SDS011;21053;50.848;4.652;2023-10-31T08:10:32;377.55;;;343.90;;
34836;SDS011;21053;50.848;4.652;2023-10-31T08:13:10;375.25;;;341.30;;
34836;SDS011;21053;50.848;4.652;2023-10-31T08:15:39;402.08;;;365.52;;
34836;SDS011;21053;50.848;4.652;2023-10-31T08:20:37;419.73;;;381.25;;
34836;SDS011;21053;50.848;4.652;2023-10-31T08:23:03;384.48;;;348.10;;
34836;SDS011;21053;50.848;4.652;2023-10-31T08:25:52;404.35;;;366.05;;
34836;SDS011;21053;50.848;4.652;2023-10-31T08:36:18;419.65;;;380.58;;
34836;SDS011;21053;50.848;4.652;2023-10-31T08:49:07;362.08;;;327.92;;
34836;SDS011;21053;50.848;4.652;2023-10-31T08:51:33;422.15;;;382.88;;
34836;SDS011;21053;50.848;4.652;2023-10-31T08:54:00;438.50;;;398.25;;
34836;SDS011;21053;50.848;4.652;2023-10-31T08:56:25;407.75;;;369.75;;
34836;SDS011;21053;50.848;4.652;2023-10-31T08:58:53;394.65;;;358.00;;
34836;SDS011;21053;50.848;4.652;2023-10-31T09:01:24;421.88;;;382.83;;
34836;SDS011;21053;50.848;4.652;2023-10-31T09:03:53;411.23;;;372.80;;
34836;SDS011;21053;50.848;4.652;2023-10-31T09:06:22;424.45;;;385.05;;
34836;SDS011;21053;50.848;4.652;2023-10-31T09:08:51;359.30;;;325.42;;
34836;SDS011;21053;50.848;4.652;2023-10-31T09:11:17;342.80;;;310.67;;
34836;SDS011;21053;50.848;4.652;2023-10-31T09:13:43;358.33;;;325.48;;
34836;SDS011;21053;50.848;4.652;2023-10-31T09:16:14;364.55;;;331.00;;
34836;SDS011;21053;50.848;4.652;2023-10-31T09:18:40;395.75;;;357.38;;
34836;SDS011;21053;50.848;4.652;2023-10-31T09:21:10;342.55;;;310.85;;
34836;SDS011;21053;50.848;4.652;2023-10-31T09:23:38;309.90;;;279.70;;
34836;SDS011;21053;50.848;4.652;2023-10-31T09:26:14;313.95;;;284.30;;
34836;SDS011;21053;50.848;4.652;2023-10-31T09:28:39;353.35;;;320.90;;
34836;SDS011;21053;50.848;4.652;2023-10-31T09:31:10;372.50;;;337.77;;
34836;SDS011;21053;50.848;4.652;2023-10-31T09:33:40;371.88;;;337.13;;
34836;SDS011;21053;50.848;4.652;2023-10-31T09:36:07;358.58;;;325.17;;
34836;SDS011;21053;50.848;4.652;2023-10-31T09:46:01;411.45;;;372.40;;
34836;SDS011;21053;50.848;4.652;2023-10-31T09:51:01;437.15;;;395.38;;
34836;SDS011;21053;50.848;4.652;2023-10-31T09:53:27;461.23;;;417.08;;
34836;SDS011;21053;50.848;4.652;2023-10-31T09:55:59;400.90;;;362.27;;
34836;SDS011;21053;50.848;4.652;2023-10-31T09:58:27;384.25;;;347.15;;
34836;SDS011;21053;50.848;4.652;2023-10-31T10:00:56;400.30;;;361.33;;
34836;SDS011;21053;50.848;4.652;2023-10-31T10:03:23;393.23;;;355.58;;
34836;SDS011;21053;50.848;4.652;2023-10-31T10:05:52;378.83;;;342.17;;
34836;SDS011;21053;50.848;4.652;2023-10-31T10:08:21;411.80;;;372.23;;
34836;SDS011;21053;50.848;4.652;2023-10-31T10:10:49;374.45;;;338.33;;
34836;SDS011;21053;50.848;4.652;2023-10-31T10:13:18;394.55;;;356.20;;
34836;SDS011;21053;50.848;4.652;2023-10-31T10:15:49;364.77;;;329.45;;
34836;SDS011;21053;50.848;4.652;2023-10-31T10:18:31;412.25;;;372.98;;
34836;SDS011;21053;50.848;4.652;2023-10-31T10:21:00;405.63;;;367.08;;
34836;SDS011;21053;50.848;4.652;2023-10-31T10:23:30;384.88;;;347.85;;
34836;SDS011;21053;50.848;4.652;2023-10-31T10:26:01;402.02;;;363.70;;
34836;SDS011;21053;50.848;4.652;2023-10-31T10:28:28;393.73;;;357.08;;
34836;SDS011;21053;50.848;4.652;2023-10-31T10:30:55;369.83;;;335.15;;
34836;SDS011;21053;50.848;4.652;2023-10-31T10:33:24;442.67;;;401.85;;
34836;SDS011;21053;50.848;4.652;2023-10-31T10:35:51;396.60;;;358.50;;
34836;SDS011;21053;50.848;4.652;2023-10-31T10:38:21;452.13;;;408.27;;
34836;SDS011;21053;50.848;4.652;2023-10-31T10:40:56;387.75;;;350.17;;
34836;SDS011;21053;50.848;4.652;2023-10-31T10:43:25;376.75;;;341.15;;
34836;SDS011;21053;50.848;4.652;2023-10-31T10:45:55;392.90;;;355.90;;
34836;SDS011;21053;50.848;4.652;2023-10-31T10:50:57;424.60;;;384.38;;
34836;SDS011;21053;50.848;4.652;2023-10-31T10:53:35;388.40;;;352.02;;
34836;SDS011;21053;50.848;4.652;2023-10-31T11:04:05;389.45;;;352.08;;
34836;SDS011;21053;50.848;4.652;2023-10-31T11:06:33;419.20;;;379.42;;
34836;SDS011;21053;50.848;4.652;2023-10-31T11:09:02;401.02;;;362.42;;
34836;SDS011;21053;50.848;4.652;2023-10-31T11:11:29;423.05;;;382.88;;
34836;SDS011;21053;50.848;4.652;2023-10-31T11:13:57;371.35;;;335.60;;
34836;SDS011;21053;50.848;4.652;2023-10-31T11:16:34;394.08;;;356.67;;
34836;SDS011;21053;50.848;4.652;2023-10-31T11:19:11;390.27;;;353.48;;
34836;SDS011;21053;50.848;4.652;2023-10-31T11:24:33;397.45;;;360.02;;
34836;SDS011;21053;50.848;4.652;2023-10-31T11:27:02;419.27;;;380.52;;
34836;SDS011;21053;50.848;4.652;2023-10-31T11:29:37;419.95;;;380.92;;
34836;SDS011;21053;50.848;4.652;2023-10-31T11:32:07;425.08;;;385.92;;
34836;SDS011;21053;50.848;4.652;2023-10-31T11:34:58;393.45;;;356.75;;
34836;SDS011;21053;50.848;4.652;2023-10-31T11:37:33;404.40;;;367.33;;
34836;SDS011;21053;50.848;4.652;2023-10-31T11:41:58;365.52;;;331.20;;
34836;SDS011;21053;50.848;4.652;2023-10-31T11:44:29;370.15;;;335.15;;
34836;SDS011;21053;50.848;4.652;2023-10-31T11:46:58;397.42;;;360.95;;
34836;SDS011;21053;50.848;4.652;2023-10-31T11:52:21;329.52;;;298.95;;
34836;SDS011;21053;50.848;4.652;2023-10-31T11:54:50;373.48;;;339.25;;
34836;SDS011;21053;50.848;4.652;2023-10-31T11:57:28;366.02;;;331.13;;
34836;SDS011;21053;50.848;4.652;2023-10-31T11:59:55;383.20;;;348.20;;
34836;SDS011;21053;50.848;4.652;2023-10-31T12:02:24;397.48;;;361.10;;
34836;SDS011;21053;50.848;4.652;2023-10-31T12:04:51;355.77;;;322.92;;
34836;SDS011;21053;50.848;4.652;2023-10-31T12:07:41;376.65;;;341.95;;
34836;SDS011;21053;50.848;4.652;2023-10-31T12:10:10;364.52;;;330.92;;
34836;SDS011;21053;50.848;4.652;2023-10-31T12:15:10;393.73;;;357.90;;
34836;SDS011;21053;50.848;4.652;2023-10-31T12:17:39;343.55;;;311.58;;
34836;SDS011;21053;50.848;4.652;2023-10-31T12:20:15;343.67;;;312.67;;
34836;SDS011;21053;50.848;4.652;2023-10-31T12:22:46;344.70;;;314.27;;
34836;SDS011;21053;50.848;4.652;2023-10-31T12:25:15;362.45;;;330.63;;
34836;SDS011;21053;50.848;4.652;2023-10-31T12:27:50;342.13;;;311.70;;
34836;SDS011;21053;50.848;4.652;2023-10-31T12:38:52;326.50;;;297.13;;
34836;SDS011;21053;50.848;4.652;2023-10-31T12:41:57;333.10;;;303.17;;
34836;SDS011;21053;50.848;4.652;2023-10-31T12:44:45;317.65;;;288.88;;
34836;SDS011;21053;50.848;4.652;2023-10-31T12:47:23;362.95;;;330.63;;
34836;SDS011;21053;50.848;4.652;2023-10-31T12:52:53;351.03;;;319.23;;
34836;SDS011;21053;50.848;4.652;2023-10-31T12:55:28;355.63;;;323.27;;
34836;SDS011;21053;50.848;4.652;2023-10-31T12:58:00;377.20;;;343.15;;
34836;SDS011;21053;50.848;4.652;2023-10-31T13:00:33;382.20;;;347.70;;
34836;SDS011;21053;50.848;4.652;2023-10-31T13:03:05;371.55;;;337.98;;
34836;SDS011;21053;50.848;4.652;2023-10-31T13:05:48;360.27;;;327.15;;
34836;SDS011;21053;50.848;4.652;2023-10-31T13:08:17;394.05;;;358.30;;
34836;SDS011;21053;50.848;4.652;2023-10-31T15:00:45;388.80;;;352.27;;
34836;SDS011;21053;50.848;4.652;2023-10-31T15:13:28;415.58;;;377.17;;
34836;SDS011;21053;50.848;4.652;2023-10-31T15:19:22;419.63;;;381.35;;
34836;SDS011;21053;50.848;4.652;2023-10-31T15:21:51;403.27;;;366.40;;
34836;SDS011;21053;50.848;4.652;2023-10-31T15:24:19;383.58;;;347.95;;
34836;SDS011;21053;50.848;4.652;2023-10-31T15:26:46;408.38;;;371.20;;
34836;SDS011;21053;50.848;4.652;2023-10-31T15:31:46;411.45;;;374.15;;
34836;SDS011;21053;50.848;4.652;2023-10-31T15:34:15;417.35;;;378.88;;
34836;SDS011;21053;50.848;4.652;2023-10-31T15:36:42;422.67;;;383.98;;
34836;SDS011;21053;50.848;4.652;2023-10-31T15:41:40;373.60;;;339.13;;
34836;SDS011;21053;50.848;4.652;2023-10-31T15:44:07;388.40;;;352.33;;
34836;SDS011;21053;50.848;4.652;2023-10-31T15:46:33;425.15;;;385.77;;
34836;SDS011;21053;50.848;4.652;2023-10-31T15:49:01;446.85;;;406.10;;
34836;SDS011;21053;50.848;4.652;2023-10-31T15:54:38;429.02;;;389.70;;
34836;SDS011;21053;50.848;4.652;2023-10-31T15:57:09;395.10;;;358.77;;
34836;SDS011;21053;50.848;4.652;2023-10-31T15:59:37;396.42;;;360.05;;
34836;SDS011;21053;50.848;4.652;2023-10-31T16:02:05;391.88;;;355.52;;
34836;SDS011;21053;50.848;4.652;2023-10-31T16:04:34;408.15;;;370.48;;
34836;SDS011;21053;50.848;4.652;2023-10-31T16:07:01;409.17;;;371.45;;
34836;SDS011;21053;50.848;4.652;2023-10-31T16:09:31;388.45;;;352.17;;
34836;SDS011;21053;50.848;4.652;2023-10-31T16:14:28;410.38;;;372.58;;
34836;SDS011;21053;50.848;4.652;2023-10-31T16:16:57;432.50;;;392.70;;
34836;SDS011;21053;50.848;4.652;2023-10-31T16:19:23;425.80;;;387.13;;
34836;SDS011;21053;50.848;4.652;2023-10-31T16:21:50;408.27;;;371.05;;
34836;SDS011;21053;50.848;4.652;2023-10-31T16:24:19;428.15;;;389.17;;
34836;SDS011;21053;50.848;4.652;2023-10-31T16:29:16;441.27;;;401.40;;
34836;SDS011;21053;50.848;4.652;2023-10-31T16:34:14;430.88;;;391.50;;
34836;SDS011;21053;50.848;4.652;2023-10-31T16:36:46;413.33;;;375.15;;
34836;SDS011;21053;50.848;4.652;2023-10-31T16:41:46;404.20;;;366.48;;
34836;SDS011;21053;50.848;4.652;2023-10-31T16:44:42;373.15;;;339.23;;
34836;SDS011;21053;50.848;4.652;2023-10-31T16:47:11;403.77;;;366.83;;
34836;SDS011;21053;50.848;4.652;2023-10-31T16:49:38;398.75;;;361.92;;
34836;SDS011;21053;50.848;4.652;2023-10-31T16:52:09;404.20;;;367.42;;
34836;SDS011;21053;50.848;4.652;2023-10-31T16:59:56;400.15;;;364.35;;
34836;SDS011;21053;50.848;4.652;2023-10-31T17:02:23;375.38;;;341.42;;
34836;SDS011;21053;50.848;4.652;2023-10-31T17:04:52;397.23;;;361.27;;
34836;SDS011;21053;50.848;4.652;2023-10-31T17:13:15;361.42;;;328.88;;
34836;SDS011;21053;50.848;4.652;2023-10-31T17:15:41;391.13;;;356.38;;
34836;SDS011;21053;50.848;4.652;2023-10-31T17:18:07;363.52;;;331.85;;
34836;SDS011;21053;50.848;4.652;2023-10-31T17:20:36;328.55;;;300.05;;
34836;SDS011;21053;50.848;4.652;2023-10-31T17:23:08;311.48;;;284.73;;
34836;SDS011;21053;50.848;4.652;2023-10-31T17:25:44;318.35;;;291.15;;
34836;SDS011;21053;50.848;4.652;2023-10-31T17:28:15;306.83;;;280.35;;
34836;SDS011;21053;50.848;4.652;2023-10-31T17:36:28;339.35;;;309.98;;
34836;SDS011;21053;50.848;4.652;2023-10-31T17:41:25;239.98;;;219.80;;
34836;SDS011;21053;50.848;4.652;2023-10-31T17:46:23;286.98;;;261.33;;
34836;SDS011;21053;50.848;4.652;2023-10-31T17:51:20;286.13;;;262.35;;
34836;SDS011;21053;50.848;4.652;2023-10-31T17:53:49;276.85;;;253.68;;
34836;SDS011;21053;50.848;4.652;2023-10-31T17:56:17;292.48;;;268.02;;
34836;SDS011;21053;50.848;4.652;2023-10-31T18:02:27;288.83;;;264.35;;
34836;SDS011;21053;50.848;4.652;2023-10-31T18:05:06;303.23;;;277.33;;
34836;SDS011;21053;50.848;4.652;2023-10-31T18:07:38;294.55;;;269.77;;
34836;SDS011;21053;50.848;4.652;2023-10-31T18:10:12;269.38;;;247.00;;
34836;SDS011;21053;50.848;4.652;2023-10-31T18:12:41;266.42;;;243.85;;
34836;SDS011;21053;50.848;4.652;2023-10-31T18:18:25;263.40;;;241.38;;
34836;SDS011;21053;50.848;4.652;2023-10-31T18:20:57;259.38;;;236.88;;
34836;SDS011;21053;50.848;4.652;2023-10-31T18:23:26;252.70;;;232.43;;
34836;SDS011;21053;50.848;4.652;2023-10-31T18:25:52;218.25;;;200.32;;
34836;SDS011;21053;50.848;4.652;2023-10-31T18:28:18;245.45;;;225.52;;
34836;SDS011;21053;50.848;4.652;2023-10-31T18:30:46;264.27;;;242.98;;
34836;SDS011;21053;50.848;4.652;2023-10-31T18:33:15;266.05;;;243.82;;
34836;SDS011;21053;50.848;4.652;2023-10-31T18:38:09;294.90;;;269.92;;
34836;SDS011;21053;50.848;4.652;2023-10-31T18:40:35;266.13;;;243.93;;
34836;SDS011;21053;50.848;4.652;2023-10-31T18:43:05;287.63;;;264.23;;
34836;SDS011;21053;50.848;4.652;2023-10-31T18:45:36;286.02;;;262.60;;
34836;SDS011;21053;50.848;4.652;2023-10-31T18:48:04;285.45;;;261.77;;
34836;SDS011;21053;50.848;4.652;2023-10-31T18:52:59;296.92;;;270.42;;
34836;SDS011;21053;50.848;4.652;2023-10-31T18:57:59;305.40;;;279.85;;
34836;SDS011;21053;50.848;4.652;2023-10-31T19:00:28;339.60;;;310.85;;
34836;SDS011;21053;50.848;4.652;2023-10-31T19:05:28;316.58;;;288.77;;
34836;SDS011;21053;50.848;4.652;2023-10-31T19:17:32;393.77;;;358.92;;
34836;SDS011;21053;50.848;4.652;2023-10-31T19:20:16;407.30;;;370.30;;
34836;SDS011;21053;50.848;4.652;2023-10-31T19:22:43;380.83;;;347.20;;
34836;SDS011;21053;50.848;4.652;2023-10-31T19:25:09;380.60;;;346.65;;
34836;SDS011;21053;50.848;4.652;2023-10-31T19:27:36;389.20;;;354.63;;
34836;SDS011;21053;50.848;4.652;2023-10-31T19:40:24;384.70;;;350.70;;
34836;SDS011;21053;50.848;4.652;2023-10-31T19:42:58;369.35;;;336.58;;
34836;SDS011;21053;50.848;4.652;2023-10-31T19:51:34;372.27;;;339.05;;
34836;SDS011;21053;50.848;4.652;2023-10-31T19:54:02;371.98;;;339.67;;
34836;SDS011;21053;50.848;4.652;2023-10-31T19:56:28;369.55;;;337.48;;
34836;SDS011;21053;50.848;4.652;2023-10-31T19:58:55;348.10;;;318.13;;
34836;SDS011;21053;50.848;4.652;2023-10-31T20:01:25;373.23;;;341.05;;
34836;SDS011;21053;50.848;4.652;2023-10-31T20:03:54;379.70;;;346.63;;
34836;SDS011;21053;50.848;4.652;2023-10-31T20:06:28;343.33;;;313.48;;
34836;SDS011;21053;50.848;4.652;2023-10-31T20:08:55;365.73;;;333.63;;
34836;SDS011;21053;50.848;4.652;2023-10-31T20:11:27;323.85;;;295.35;;
34836;SDS011;21053;50.848;4.652;2023-10-31T20:13:56;364.73;;;333.15;;
34836;SDS011;21053;50.848;4.652;2023-10-31T20:16:33;354.70;;;324.00;;
34836;SDS011;21053;50.848;4.652;2023-10-31T20:19:00;357.70;;;326.70;;
34836;SDS011;21053;50.848;4.652;2023-10-31T20:21:29;357.98;;;325.80;;
34836;SDS011;21053;50.848;4.652;2023-10-31T20:24:02;355.48;;;325.08;;
34836;SDS011;21053;50.848;4.652;2023-10-31T20:26:37;358.55;;;327.27;;
34836;SDS011;21053;50.848;4.652;2023-10-31T20:29:12;347.50;;;317.35;;
34836;SDS011;21053;50.848;4.652;2023-10-31T20:31:43;332.52;;;303.95;;
34836;SDS011;21053;50.848;4.652;2023-10-31T20:34:10;327.88;;;299.92;;
34836;SDS011;21053;50.848;4.652;2023-10-31T20:36:36;320.70;;;293.10;;
34836;SDS011;21053;50.848;4.652;2023-10-31T20:39:36;314.65;;;287.38;;
34836;SDS011;21053;50.848;4.652;2023-10-31T20:42:07;323.50;;;295.92;;
34836;SDS011;21053;50.848;4.652;2023-10-31T20:49:43;315.48;;;289.38;;
34836;SDS011;21053;50.848;4.652;2023-10-31T20:52:10;296.58;;;271.85;;
34836;SDS011;21053;50.848;4.652;2023-10-31T20:54:39;329.40;;;301.85;;
34836;SDS011;21053;50.848;4.652;2023-10-31T20:57:10;277.92;;;254.32;;
34836;SDS011;21053;50.848;4.652;2023-10-31T20:59:35;315.20;;;288.55;;
34836;SDS011;21053;50.848;4.652;2023-10-31T21:02:01;298.15;;;271.80;;
34836;SDS011;21053;50.848;4.652;2023-10-31T21:04:33;300.95;;;274.83;;
34836;SDS011;21053;50.848;4.652;2023-10-31T21:07:04;297.58;;;272.33;;
34836;SDS011;21053;50.848;4.652;2023-10-31T21:12:33;331.80;;;303.83;;
34836;SDS011;21053;50.848;4.652;2023-10-31T21:17:53;328.20;;;300.38;;
34836;SDS011;21053;50.848;4.652;2023-10-31T21:20:30;334.25;;;305.42;;
34836;SDS011;21053;50.848;4.652;2023-10-31T21:27:11;319.00;;;291.35;;
34836;SDS011;21053;50.848;4.652;2023-10-31T21:29:43;332.40;;;304.33;;
34836;SDS011;21053;50.848;4.652;2023-10-31T21:32:13;353.77;;;324.05;;
34836;SDS011;21053;50.848;4.652;2023-10-31T21:35:00;351.40;;;321.23;;
34836;SDS011;21053;50.848;4.652;2023-10-31T21:37:48;373.50;;;341.15;;
34836;SDS011;21053;50.848;4.652;2023-10-31T21:40:30;393.35;;;359.25;;
34836;SDS011;21053;50.848;4.652;2023-10-31T21:43:01;385.10;;;351.67;;
34836;SDS011;21053;50.848;4.652;2023-10-31T21:48:04;363.33;;;331.13;;
34836;SDS011;21053;50.848;4.652;2023-10-31T21:50:35;377.40;;;344.42;;
34836;SDS011;21053;50.848;4.652;2023-10-31T21:53:09;341.15;;;311.40;;
34836;SDS011;21053;50.848;4.652;2023-10-31T21:55:37;341.48;;;311.10;;
34836;SDS011;21053;50.848;4.652;2023-10-31T21:58:06;343.55;;;314.10;;
34836;SDS011;21053;50.848;4.652;2023-10-31T22:03:03;383.48;;;350.00;;
34836;SDS011;21053;50.848;4.652;2023-10-31T22:05:32;366.70;;;334.23;;
34836;SDS011;21053;50.848;4.652;2023-10-31T22:08:02;357.67;;;326.30;;
34836;SDS011;21053;50.848;4.652;2023-10-31T22:12:59;381.40;;;348.27;;
34836;SDS011;21053;50.848;4.652;2023-10-31T22:15:27;398.48;;;364.08;;
34836;SDS011;21053;50.848;4.652;2023-10-31T22:17:53;381.45;;;347.73;;
34836;SDS011;21053;50.848;4.652;2023-10-31T22:23:29;400.25;;;364.88;;
34836;SDS011;21053;50.848;4.652;2023-10-31T22:25:58;381.25;;;347.45;;
34836;SDS011;21053;50.848;4.652;2023-10-31T22:28:27;390.58;;;356.08;;
34836;SDS011;21053;50.848;4.652;2023-10-31T22:30:56;378.58;;;344.98;;
34836;SDS011;21053;50.848;4.652;2023-10-31T22:38:37;386.23;;;352.05;;
34836;SDS011;21053;50.848;4.652;2023-10-31T22:41:04;383.15;;;348.77;;
34836;SDS011;21053;50.848;4.652;2023-10-31T22:46:05;356.35;;;324.10;;
34836;SDS011;21053;50.848;4.652;2023-10-31T22:48:37;409.70;;;373.00;;
34836;SDS011;21053;50.848;4.652;2023-10-31T22:51:03;387.73;;;352.33;;
34836;SDS011;21053;50.848;4.652;2023-10-31T22:53:32;360.58;;;327.98;;
34836;SDS011;21053;50.848;4.652;2023-10-31T22:55:59;398.25;;;362.63;;
34836;SDS011;21053;50.848;4.652;2023-10-31T23:00:56;397.55;;;362.50;;
34836;SDS011;21053;50.848;4.652;2023-10-31T23:03:22;387.13;;;352.52;;
34836;SDS011;21053;50.848;4.652;2023-10-31T23:05:51;364.50;;;331.90;;
34836;SDS011;21053;50.848;4.652;2023-10-31T23:10:50;369.40;;;336.40;;